Time;durP1;ratioP1;P1;durP2;ratioP2;P2;SDS_P1;SDS_P2;PMS_P1;PMS_P2;Temp;Humidity;BMP_temperature;BMP_pressure;BME280_temperature;BME280_humidity;BME280_pressure;Samples;Min_cycle;Max_cycle;Signal;HPM_P1;HPM_P2
2021/08/15 00:01:27;;;;;;;14.23;12.98;;;;;;;29.59;48.16;95527.06;5008330;28;20022;-67
2021/08/15 00:03:53;;;;;;;14.43;13.02;;;;;;;29.53;48.25;95526.72;5010878;28;20037;-65
2021/08/15 00:06:18;;;;;;;16.02;14.02;;;;;;;29.57;48.19;95521.22;5008408;28;20092;-64
2021/08/15 00:08:47;;;;;;;19.08;13.55;;;;;;;29.10;48.98;95521.16;5009146;28;20088;-65
2021/08/15 00:11:13;;;;;;;18.02;13.70;;;;;;;28.65;50.79;95526.88;5009130;28;20065;-65
2021/08/15 00:13:38;;;;;;;14.18;12.75;;;;;;;28.70;50.53;95518.19;5009214;28;20066;-65
2021/08/15 00:16:04;;;;;;;13.55;12.25;;;;;;;28.78;50.46;95519.66;5009419;28;20405;-64
2021/08/15 00:18:29;;;;;;;14.98;12.13;;;;;;;29.03;49.35;95527.53;5027913;28;20034;-65
2021/08/15 00:20:54;;;;;;;13.93;12.50;;;;;;;28.97;49.65;95518.22;5028649;28;20607;-65
2021/08/15 00:23:20;;;;;;;15.57;14.00;;;;;;;28.98;49.55;95523.31;5043613;28;20033;-65
2021/08/15 00:25:45;;;;;;;14.32;12.82;;;;;;;28.91;50.13;95536.28;5027976;28;20111;-64
2021/08/15 00:28:10;;;;;;;14.52;12.57;;;;;;;28.87;50.04;95530.06;5028535;28;20387;-64
2021/08/15 00:30:36;;;;;;;15.48;13.95;;;;;;;28.90;50.07;95529.25;5016956;28;20087;-64
2021/08/15 00:33:01;;;;;;;14.57;13.18;;;;;;;28.91;50.09;95528.84;5024046;28;20064;-65
2021/08/15 00:35:27;;;;;;;15.75;13.18;;;;;;;28.86;49.54;95523.06;5028386;28;20075;-64
2021/08/15 00:37:53;;;;;;;14.27;12.77;;;;;;;28.94;49.58;95521.81;5026799;28;20050;-65
2021/08/15 00:40:18;;;;;;;13.68;12.27;;;;;;;29.11;49.28;95519.97;5027113;28;20163;-64
2021/08/15 00:42:44;;;;;;;15.00;12.27;;;;;;;28.99;49.31;95515.84;5030331;28;20064;-65
2021/08/15 00:45:10;;;;;;;14.73;12.90;;;;;;;28.85;49.99;95514.06;5019257;28;20456;-65
2021/08/15 00:47:36;;;;;;;15.02;13.43;;;;;;;28.90;49.56;95501.88;5006520;28;20050;-65
2021/08/15 00:50:03;;;;;;;14.82;13.40;;;;;;;29.11;49.02;95512.53;5008639;28;20428;-65
2021/08/15 00:52:29;;;;;;;14.18;12.82;;;;;;;29.13;49.10;95507.44;5008378;28;20042;-65
2021/08/15 00:54:57;;;;;;;19.40;14.40;;;;;;;29.09;49.07;95512.19;5010323;28;20026;-65
2021/08/15 00:57:29;;;;;;;16.67;14.90;;;;;;;29.15;49.18;95513.25;5008094;28;20161;-65
2021/08/15 00:59:59;;;;;;;16.58;14.82;;;;;;;28.95;49.47;95504.19;5007745;28;20117;-64
2021/08/15 01:02:24;;;;;;;16.20;13.55;;;;;;;28.89;49.81;95501.09;5008134;28;20062;-65
2021/08/15 01:04:50;;;;;;;19.80;13.10;;;;;;;28.68;50.28;95507.66;5008317;28;20065;-66
2021/08/15 01:07:17;;;;;;;15.98;12.57;;;;;;;28.60;50.56;95508.16;5007811;28;20026;-64
2021/08/15 01:09:43;;;;;;;15.70;13.68;;;;;;;28.67;49.95;95494.41;5010378;28;20097;-64
2021/08/15 01:12:08;;;;;;;16.40;12.57;;;;;;;28.81;49.61;95494.19;5010978;28;20515;-65
2021/08/15 01:14:33;;;;;;;16.50;13.48;;;;;;;28.89;49.36;95501.09;5011164;28;20061;-64
2021/08/15 01:16:59;;;;;;;15.40;13.93;;;;;;;28.92;49.53;95500.28;5011363;28;20057;-65
2021/08/15 01:19:29;;;;;;;16.42;14.35;;;;;;;29.01;49.04;95495.06;5011968;28;20109;-64
2021/08/15 01:21:55;;;;;;;14.63;12.75;;;;;;;28.94;49.74;95497.16;5013787;28;20029;-65
2021/08/15 01:24:20;;;;;;;18.58;14.25;;;;;;;28.95;49.30;95493.22;5011766;28;20046;-65
2021/08/15 01:26:47;;;;;;;14.73;13.32;;;;;;;28.99;49.13;95500.19;5011437;28;20040;-65
2021/08/15 01:29:13;;;;;;;15.25;13.55;;;;;;;28.83;49.98;95496.50;5010611;28;20030;-65
2021/08/15 01:31:38;;;;;;;18.00;13.82;;;;;;;28.61;50.77;95493.28;5026118;28;20585;-65
2021/08/15 01:34:04;;;;;;;18.75;14.65;;;;;;;28.82;50.20;95503.16;5013720;28;20049;-64
2021/08/15 01:36:29;;;;;;;15.20;13.60;;;;;;;28.79;49.63;95471.16;5021638;23;20167;-72
2021/08/15 01:38:54;;;;;;;18.30;14.63;;;;;;;28.88;49.67;95477.66;4991437;28;20042;-71
2021/08/15 01:41:20;;;;;;;17.20;14.93;;;;;;;28.91;49.39;95498.72;4991416;28;20031;-71
2021/08/15 01:43:50;;;;;;;17.98;14.20;;;;;;;28.93;49.47;95490.09;4991159;28;20034;-72
2021/08/15 01:46:17;;;;;;;19.55;16.02;;;;;;;28.80;49.85;95487.16;5008204;28;20037;-75
2021/08/15 01:48:42;;;;;;;16.90;15.10;;;;;;;28.58;51.21;95494.13;5013842;28;20022;-71
2021/08/15 01:51:08;;;;;;;17.33;13.88;;;;;;;28.80;50.48;95489.91;5010674;28;20042;-72
2021/08/15 01:53:33;;;;;;;22.58;14.80;;;;;;;28.68;50.43;95471.31;5011811;28;20048;-72
2021/08/15 01:55:58;;;;;;;16.05;14.38;;;;;;;28.77;50.46;95488.00;5011486;28;20377;-71
2021/08/15 01:58:25;;;;;;;18.95;15.85;;;;;;;28.73;50.28;95473.59;5011978;28;20592;-71
2021/08/15 02:00:50;;;;;;;20.20;15.50;;;;;;;28.76;49.83;95480.94;5013367;28;20080;-71
2021/08/15 02:03:15;;;;;;;16.90;15.05;;;;;;;28.69;50.29;95476.38;5010273;28;20042;-71
2021/08/15 02:05:42;;;;;;;21.15;14.88;;;;;;;28.52;51.38;95485.59;5011186;28;20527;-71
2021/08/15 02:08:07;;;;;;;19.30;14.23;;;;;;;28.48;51.12;95493.84;5009900;28;20038;-71
2021/08/15 02:10:33;;;;;;;16.02;14.35;;;;;;;28.58;50.91;95486.69;5010216;28;20402;-72
2021/08/15 02:13:00;;;;;;;15.55;13.70;;;;;;;28.43;51.34;95486.09;5013320;28;20076;-71
2021/08/15 02:15:26;;;;;;;16.33;14.60;;;;;;;28.32;51.81;95488.19;5009593;28;20046;-71
2021/08/15 02:17:51;;;;;;;15.95;14.35;;;;;;;28.02;52.38;95480.72;5010956;28;20547;-71
2021/08/15 02:20:19;;;;;;;16.10;14.30;;;;;;;28.30;51.73;95495.22;5011662;28;20069;-71
2021/08/15 02:22:44;;;;;;;15.90;14.30;;;;;;;28.35;51.63;95486.59;5010356;28;20034;-71
2021/08/15 02:25:11;;;;;;;16.40;14.77;;;;;;;28.37;51.26;95471.34;5012916;28;20534;-71
2021/08/15 02:27:40;;;;;;;15.70;14.10;;;;;;;28.45;51.26;95491.94;5011328;28;20057;-71
2021/08/15 02:30:07;;;;;;;17.45;14.15;;;;;;;28.41;51.40;95485.75;5010804;28;20026;-72
2021/08/15 02:32:32;;;;;;;18.77;14.68;;;;;;;28.43;51.06;95477.91;5010629;28;20096;-72
2021/08/15 02:34:58;;;;;;;18.67;15.32;;;;;;;28.56;50.52;95489.06;5008786;28;20396;-71
2021/08/15 02:37:24;;;;;;;18.38;16.38;;;;;;;28.67;50.33;95483.44;5009979;28;20033;-72
2021/08/15 02:39:51;;;;;;;18.42;15.43;;;;;;;28.61;50.73;95482.34;5013017;28;20037;-72
2021/08/15 02:42:17;;;;;;;19.33;15.27;;;;;;;28.69;50.14;95481.06;5011233;28;20038;-71
2021/08/15 02:44:42;;;;;;;18.90;15.98;;;;;;;28.68;49.94;95488.50;5010424;28;20116;-72
2021/08/15 02:47:09;;;;;;;19.75;14.80;;;;;;;28.45;50.67;95472.78;5010227;28;20107;-73
2021/08/15 02:49:35;;;;;;;18.10;15.98;;;;;;;28.56;50.18;95477.34;5009553;28;20053;-72
2021/08/15 02:52:00;;;;;;;16.70;15.07;;;;;;;28.63;50.05;95483.50;5011726;28;20080;-71
2021/08/15 02:54:26;;;;;;;20.15;18.02;;;;;;;28.58;50.07;95480.44;5010769;28;20038;-71
2021/08/15 02:56:51;;;;;;;20.25;17.67;;;;;;;28.53;50.21;95476.22;5010445;28;20034;-71
2021/08/15 02:59:16;;;;;;;25.52;19.05;;;;;;;28.51;49.96;95484.06;5010612;28;20037;-71
2021/08/15 03:01:41;;;;;;;21.25;17.08;;;;;;;28.47;50.36;95472.38;5008552;28;20046;-72
2021/08/15 03:04:07;;;;;;;23.08;18.65;;;;;;;28.38;50.13;95461.94;5012282;28;20441;-72
2021/08/15 03:06:32;;;;;;;21.45;17.75;;;;;;;28.45;50.30;95477.47;5008981;28;20496;-72
2021/08/15 03:08:57;;;;;;;18.77;16.88;;;;;;;28.45;50.30;95467.31;5010433;28;20040;-73
2021/08/15 03:11:23;;;;;;;20.65;18.73;;;;;;;28.32;50.41;95460.06;5010442;28;20054;-71
2021/08/15 03:13:48;;;;;;;21.85;19.52;;;;;;;28.31;50.60;95455.78;5010250;28;20035;-72
2021/08/15 03:16:13;;;;;;;20.65;18.40;;;;;;;28.27;50.55;95457.78;5008951;28;20029;-72
2021/08/15 03:18:39;;;;;;;24.67;18.83;;;;;;;28.29;50.76;95458.91;5012112;28;20022;-72
2021/08/15 03:21:04;;;;;;;26.05;19.88;;;;;;;28.33;50.86;95461.59;5010331;28;20062;-72
2021/08/15 03:23:29;;;;;;;22.58;20.25;;;;;;;28.17;51.18;95454.00;5009987;28;20117;-72
2021/08/15 03:25:55;;;;;;;22.85;20.35;;;;;;;28.18;50.91;95452.81;5009445;28;20042;-73
2021/08/15 03:28:20;;;;;;;21.50;18.73;;;;;;;28.15;50.98;95457.16;5010490;28;20026;-71
2021/08/15 03:30:45;;;;;;;19.00;17.13;;;;;;;28.13;51.16;95464.97;5011843;28;20030;-72
2021/08/15 03:33:10;;;;;;;18.98;16.90;;;;;;;28.15;51.34;95453.59;5010336;28;20038;-72
2021/08/15 03:35:36;;;;;;;21.50;17.95;;;;;;;28.13;51.39;95456.00;5009503;28;20092;-72
2021/08/15 03:38:01;;;;;;;22.52;18.73;;;;;;;28.15;51.10;95454.41;5009626;28;20073;-72
2021/08/15 03:40:27;;;;;;;26.27;20.73;;;;;;;28.20;51.12;95458.63;5009508;28;20025;-71
2021/08/15 03:42:52;;;;;;;26.83;20.98;;;;;;;28.09;51.41;95456.03;5010405;28;20072;-72
2021/08/15 03:45:17;;;;;;;18.95;17.08;;;;;;;28.12;51.33;95446.25;5009190;28;20042;-71
2021/08/15 03:47:43;;;;;;;22.23;19.92;;;;;;;28.24;50.80;95459.34;5008993;28;20585;-72
2021/08/15 03:50:08;;;;;;;24.75;19.10;;;;;;;28.13;50.76;95445.81;5009412;28;20535;-72
2021/08/15 03:52:38;;;;;;;23.92;20.23;;;;;;;28.19;51.25;95454.34;5009331;28;20498;-72
2021/08/15 03:55:04;;;;;;;24.70;19.60;;;;;;;28.18;51.00;95450.06;5011343;28;20520;-72
2021/08/15 03:57:30;;;;;;;19.75;16.27;;;;;;;28.16;50.68;95455.94;5008902;28;20058;-72
2021/08/15 03:59:55;;;;;;;23.30;19.23;;;;;;;28.20;50.88;95453.16;5009573;28;20078;-72
2021/08/15 04:02:20;;;;;;;23.75;18.80;;;;;;;28.20;50.97;95453.16;5008906;28;20136;-71
2021/08/15 04:04:46;;;;;;;27.40;22.13;;;;;;;28.15;50.67;95454.41;5009228;28;20405;-71
2021/08/15 04:07:11;;;;;;;22.95;17.50;;;;;;;28.13;51.19;95458.72;5008940;28;20045;-72
2021/08/15 04:09:36;;;;;;;18.48;15.38;;;;;;;28.20;51.02;95466.81;5011366;28;20018;-72
2021/08/15 04:12:02;;;;;;;22.00;17.75;;;;;;;28.19;51.17;95454.34;5009395;28;20041;-72
2021/08/15 04:14:27;;;;;;;22.60;18.75;;;;;;;28.22;51.17;95456.28;5007354;28;20050;-72
2021/08/15 04:16:52;;;;;;;22.77;17.50;;;;;;;28.28;51.10;95460.09;5008285;28;20128;-72
2021/08/15 04:19:18;;;;;;;21.67;19.58;;;;;;;28.22;50.55;95459.00;5008754;28;20670;-72
2021/08/15 04:21:43;;;;;;;20.63;16.33;;;;;;;28.19;50.65;95454.34;5010870;28;20030;-72
2021/08/15 04:24:08;;;;;;;25.58;18.70;;;;;;;28.28;51.01;95454.63;5008985;28;20066;-72
2021/08/15 04:26:34;;;;;;;17.90;16.10;;;;;;;28.28;50.76;95470.25;5008964;28;20034;-72
2021/08/15 04:28:59;;;;;;;18.35;16.45;;;;;;;28.21;50.99;95455.50;5009201;28;20034;-72
2021/08/15 04:31:24;;;;;;;18.80;14.48;;;;;;;28.28;50.39;95454.63;5008736;28;20038;-72
2021/08/15 04:33:50;;;;;;;20.02;16.10;;;;;;;28.39;50.65;95455.28;5010724;28;20419;-72
2021/08/15 04:36:15;;;;;;;23.00;16.33;;;;;;;28.38;50.65;95456.47;5008761;28;20573;-72
2021/08/15 04:38:41;;;;;;;18.88;16.00;;;;;;;28.37;50.59;95457.66;5009114;28;20084;-72
2021/08/15 04:41:06;;;;;;;16.88;15.25;;;;;;;28.45;50.09;95450.13;5008968;28;20030;-72
2021/08/15 04:43:32;;;;;;;16.27;14.77;;;;;;;28.58;49.98;95448.38;5007779;28;20038;-72
2021/08/15 04:45:58;;;;;;;18.10;14.80;;;;;;;28.45;50.53;95448.16;5010752;28;20134;-72
2021/08/15 04:48:24;;;;;;;17.13;14.48;;;;;;;28.63;50.06;95456.13;5012744;28;20065;-72
2021/08/15 04:50:49;;;;;;;15.90;13.90;;;;;;;28.60;49.53;95439.75;5012732;28;20076;-72
2021/08/15 04:53:14;;;;;;;17.35;12.82;;;;;;;28.66;49.99;95460.78;5013173;28;20077;-72
2021/08/15 04:55:40;;;;;;;13.15;12.05;;;;;;;28.81;49.83;95460.56;5012814;28;20030;-72
2021/08/15 04:58:06;;;;;;;14.18;11.98;;;;;;;28.88;49.55;95461.22;5015156;28;20030;-72
2021/08/15 05:00:31;;;;;;;15.40;12.10;;;;;;;29.03;49.09;95448.13;5013201;28;20034;-72
2021/08/15 05:02:57;;;;;;;22.00;12.32;;;;;;;28.95;48.77;95443.94;5011074;28;20538;-73
2021/08/15 05:05:22;;;;;;;15.75;12.32;;;;;;;28.98;48.72;95446.63;5012422;28;20046;-72
2021/08/15 05:07:47;;;;;;;14.32;11.27;;;;;;;29.17;48.43;95441.59;5011954;28;20072;-72
2021/08/15 05:10:13;;;;;;;15.55;11.48;;;;;;;29.31;48.25;95446.84;5010985;28;20053;-71
2021/08/15 05:12:38;;;;;;;12.40;11.10;;;;;;;29.45;48.38;95460.31;5014406;28;20460;-73
2021/08/15 05:15:04;;;;;;;16.27;12.05;;;;;;;29.52;47.96;95453.91;5012282;28;20042;-71
2021/08/15 05:17:30;;;;;;;12.65;10.63;;;;;;;29.56;47.83;95459.38;5011210;28;20129;-72
2021/08/15 05:19:55;;;;;;;14.35;10.00;;;;;;;29.67;47.64;95462.69;5012171;28;20120;-72
2021/08/15 05:22:20;;;;;;;12.63;11.52;;;;;;;29.69;47.42;95452.09;5012466;28;20369;-72
2021/08/15 05:24:46;;;;;;;13.85;12.45;;;;;;;29.87;47.04;95466.22;5014110;28;20037;-72
2021/08/15 05:27:11;;;;;;;13.15;11.85;;;;;;;29.95;46.83;95456.66;5011843;28;20488;-72
2021/08/15 05:29:36;;;;;;;13.77;12.07;;;;;;;29.98;46.61;95449.56;5012397;28;20034;-72
2021/08/15 05:32:02;;;;;;;12.57;11.15;;;;;;;29.80;47.00;95460.88;5010266;28;20065;-72
2021/08/15 05:34:27;;;;;;;16.85;11.95;;;;;;;30.06;46.67;95461.94;5012015;28;20038;-72
2021/08/15 05:36:53;;;;;;;17.75;11.60;;;;;;;30.16;46.25;95460.22;5013503;28;20092;-73
2021/08/15 05:39:19;;;;;;;20.02;11.18;;;;;;;30.12;45.96;95464.97;5012096;28;20046;-71
2021/08/15 05:41:45;;;;;;;15.25;10.95;;;;;;;30.14;46.07;95454.34;5010581;28;20602;-72
2021/08/15 05:44:10;;;;;;;20.98;11.77;;;;;;;29.34;47.24;95467.94;5011810;28;20042;-72
2021/08/15 05:46:35;;;;;;;12.75;11.45;;;;;;;28.75;48.87;95461.00;5009450;28;20091;-72
2021/08/15 05:49:01;;;;;;;17.20;11.75;;;;;;;28.61;49.40;95471.41;5012287;28;20083;-72
2021/08/15 05:51:26;;;;;;;15.77;11.32;;;;;;;29.04;48.79;95474.31;5011916;28;20560;-71
2021/08/15 05:53:51;;;;;;;15.00;11.23;;;;;;;29.57;47.80;95478.13;5010748;28;20527;-72
2021/08/15 05:56:16;;;;;;;16.85;11.75;;;;;;;29.54;47.67;95473.50;5010874;28;20041;-71
2021/08/15 05:58:42;;;;;;;15.15;11.73;;;;;;;29.36;47.86;95468.28;5010244;28;20061;-72
2021/08/15 06:01:08;;;;;;;13.23;11.82;;;;;;;29.70;47.59;95473.59;5013332;28;20046;-73
2021/08/15 06:03:34;;;;;;;18.35;11.32;;;;;;;29.98;46.84;95460.53;5010141;28;20721;-72
2021/08/15 06:05:59;;;;;;;13.75;12.30;;;;;;;29.57;47.21;95463.66;5011247;28;20046;-72
2021/08/15 06:08:24;;;;;;;14.18;11.75;;;;;;;29.21;48.04;95477.94;5011529;28;20137;-72
2021/08/15 06:10:53;;;;;;;15.80;12.93;;;;;;;28.26;50.91;95476.16;5010097;28;20038;-73
2021/08/15 06:13:19;;;;;;;15.98;13.18;;;;;;;28.88;49.49;95465.94;5010383;28;20022;-71
2021/08/15 06:15:44;;;;;;;14.95;11.80;;;;;;;29.27;48.52;95459.84;5012407;28;20036;-72
2021/08/15 06:18:10;;;;;;;15.98;12.07;;;;;;;29.61;47.83;95475.34;5011092;28;20038;-72
2021/08/15 06:20:35;;;;;;;16.48;13.25;;;;;;;28.75;49.38;95458.28;5009584;28;20396;-72
2021/08/15 06:23:00;;;;;;;15.38;13.82;;;;;;;29.44;47.86;95472.47;5010886;28;20100;-72
2021/08/15 06:25:26;;;;;;;19.30;13.93;;;;;;;29.21;48.71;95477.94;5011102;28;20483;-71
2021/08/15 06:27:51;;;;;;;16.98;13.90;;;;;;;29.39;48.55;95478.44;5011461;28;20423;-71
2021/08/15 06:30:17;;;;;;;16.70;14.85;;;;;;;29.00;49.11;95477.09;5009900;28;20117;-71
2021/08/15 06:32:53;;;;;;;17.13;13.75;;;;;;;28.59;50.00;95471.81;5010708;28;20038;-71
2021/08/15 06:35:26;;;;;;;22.35;15.30;;;;;;;30.07;47.26;95481.91;5009675;28;20068;-72
2021/08/15 06:37:53;;;;;;;17.90;14.60;;;;;;;30.68;46.08;95475.94;5010634;28;20046;-72
2021/08/15 06:40:28;;;;;;;19.23;12.80;;;;;;;30.79;45.29;95465.50;5010596;28;20409;-72
2021/08/15 06:42:53;;;;;;;16.65;12.27;;;;;;;31.50;44.03;95480.31;5012642;28;20022;-72
2021/08/15 06:45:19;;;;;;;15.77;13.15;;;;;;;31.85;43.72;95472.34;5010111;28;20045;-71
2021/08/15 06:47:44;;;;;;;15.80;13.02;;;;;;;31.65;43.52;95477.19;5009757;28;20562;-72
2021/08/15 06:50:10;;;;;;;17.85;13.60;;;;;;;31.21;43.95;95463.72;5010556;28;20038;-71
2021/08/15 06:52:36;;;;;;;16.65;13.68;;;;;;;31.60;43.11;95456.50;5010754;28;20092;-73
2021/08/15 06:55:03;;;;;;;16.88;15.20;;;;;;;31.21;43.86;95468.44;5012628;28;20018;-72
2021/08/15 06:57:29;;;;;;;21.08;14.30;;;;;;;30.70;44.85;95476.31;5010274;28;20053;-72
2021/08/15 06:59:55;;;;;;;16.35;12.82;;;;;;;30.54;45.47;95469.56;5010581;28;20044;-71
2021/08/15 07:02:20;;;;;;;25.45;14.88;;;;;;;31.22;43.27;95451.53;5006543;28;20430;-71
2021/08/15 07:04:46;;;;;;;22.35;15.10;;;;;;;31.23;43.78;95455.06;5009502;28;20070;-69
2021/08/15 07:07:12;;;;;;;17.23;14.95;;;;;;;29.99;46.22;95468.34;5010488;28;20029;-71
2021/08/15 07:09:37;;;;;;;16.95;14.50;;;;;;;30.41;45.58;95471.44;5012844;28;20468;-76
2021/08/15 07:12:03;;;;;;;16.45;13.57;;;;;;;31.14;44.53;95463.13;5011468;28;20674;-76
2021/08/15 07:14:29;;;;;;;18.08;12.88;;;;;;;31.63;43.42;95463.84;5009960;28;20045;-77
2021/08/15 07:16:58;;;;;;;16.70;14.80;;;;;;;31.77;42.61;95465.47;5010256;28;20034;-76
2021/08/15 07:19:24;;;;;;;17.92;13.77;;;;;;;31.98;42.25;95462.16;5010898;28;20030;-77
2021/08/15 07:21:50;;;;;;;15.52;13.75;;;;;;;32.31;41.72;95465.53;5012706;28;20532;-75
2021/08/15 07:24:16;;;;;;;19.83;14.32;;;;;;;32.65;41.44;95469.66;5010305;28;20038;-75
2021/08/15 07:26:41;;;;;;;15.93;14.43;;;;;;;32.01;41.33;95466.03;5007756;28;20114;-71
2021/08/15 07:29:07;;;;;;;19.02;14.18;;;;;;;32.39;40.74;95459.84;4990776;28;20045;-70
2021/08/15 07:31:33;;;;;;;18.50;13.38;;;;;;;32.50;40.63;95471.31;5008924;28;20046;-73
2021/08/15 07:33:59;;;;;;;17.45;11.60;;;;;;;33.26;39.84;95465.81;5011866;28;20030;-78
2021/08/15 07:36:25;;;;;;;15.45;11.85;;;;;;;33.94;38.73;95457.28;5009565;28;20046;-70
2021/08/15 07:38:50;;;;;;;18.40;12.23;;;;;;;34.45;38.15;95457.78;5010159;28;20041;-70
2021/08/15 07:41:15;;;;;;;15.63;12.05;;;;;;;34.86;37.11;95466.84;5009709;28;20049;-70
2021/08/15 07:43:41;;;;;;;13.13;11.63;;;;;;;34.88;35.67;95456.88;5009661;28;20124;-72
2021/08/15 07:46:06;;;;;;;12.82;11.52;;;;;;;33.73;37.73;95448.50;5010906;28;20063;-72
2021/08/15 07:48:31;;;;;;;13.77;11.60;;;;;;;34.19;37.54;95456.34;5010196;28;20045;-79
2021/08/15 07:50:57;;;;;;;15.20;10.95;;;;;;;34.34;36.96;95454.59;5010517;28;20407;-79
2021/08/15 07:53:25;;;;;;;12.25;10.98;;;;;;;34.36;37.14;95452.16;5009199;28;20042;-77
2021/08/15 07:55:52;;;;;;;15.75;11.57;;;;;;;34.48;36.91;95456.84;5009038;28;20064;-82
2021/08/15 07:58:19;;;;;;;12.88;11.57;;;;;;;34.53;36.27;95444.44;5008334;28;20181;-76
2021/08/15 08:00:44;;;;;;;11.27;9.98;;;;;;;34.35;35.79;95451.41;5012257;28;20392;-76
2021/08/15 08:03:10;;;;;;;11.55;10.48;;;;;;;34.24;35.73;95458.50;5008400;28;20057;-76
2021/08/15 08:05:36;;;;;;;12.15;11.15;;;;;;;33.25;36.73;95455.22;5009157;28;20056;-77
2021/08/15 08:08:01;;;;;;;14.95;11.30;;;;;;;33.13;37.27;95456.03;5008350;28;20060;-77
2021/08/15 08:10:27;;;;;;;15.10;10.85;;;;;;;32.17;38.49;95443.94;5009267;28;20503;-76
2021/08/15 08:12:52;;;;;;;12.27;10.80;;;;;;;32.60;39.08;95448.97;5011787;28;20030;-75
2021/08/15 08:15:18;;;;;;;13.55;12.13;;;;;;;32.45;39.13;95442.38;5009575;28;20496;-76
2021/08/15 08:17:44;;;;;;;11.93;10.82;;;;;;;32.57;39.04;95427.06;5007856;28;20034;-76
2021/08/15 08:20:12;;;;;;;15.07;11.60;;;;;;;32.59;38.94;95441.13;5007830;28;20053;-76
2021/08/15 08:22:37;;;;;;;12.35;9.50;;;;;;;33.07;38.49;95420.75;5007721;28;20404;-77
2021/08/15 08:25:02;;;;;;;15.77;11.63;;;;;;;33.49;37.88;95433.59;5011665;28;20030;-77
2021/08/15 08:27:28;;;;;;;15.18;10.60;;;;;;;33.32;37.99;95436.47;5009122;28;20041;-77
2021/08/15 08:29:53;;;;;;;15.60;10.95;;;;;;;33.33;38.04;95431.72;5009465;28;20058;-77
2021/08/15 08:32:18;;;;;;;15.52;11.23;;;;;;;33.56;37.51;95420.31;5009210;28;20514;-76
2021/08/15 08:34:44;;;;;;;12.30;11.05;;;;;;;33.76;37.02;95413.72;5008063;28;20049;-77
2021/08/15 08:37:10;;;;;;;13.52;11.50;;;;;;;33.34;37.84;95427.75;5010835;28;20034;-79
2021/08/15 08:39:35;;;;;;;13.65;10.40;;;;;;;33.55;37.27;95421.53;5008120;28;20033;-77
2021/08/15 08:42:03;;;;;;;12.88;10.57;;;;;;;33.87;36.84;95428.66;5009525;28;20034;-78
2021/08/15 08:44:31;;;;;;;12.10;10.82;;;;;;;33.92;36.42;95405.22;5008051;28;20034;-77
2021/08/15 08:47:05;;;;;;;11.80;10.60;;;;;;;33.86;36.25;95402.28;5008786;28;20065;-78
2021/08/15 08:49:32;;;;;;;12.50;10.13;;;;;;;33.59;37.25;95418.66;5007792;28;22082;-77
2021/08/15 08:51:58;;;;;;;11.95;10.75;;;;;;;33.47;36.85;95361.53;5011725;28;20026;-78
2021/08/15 08:54:25;;;;;;;12.25;10.52;;;;;;;33.21;38.28;95408.47;5009477;28;20092;-78
2021/08/15 08:56:50;;;;;;;13.52;10.65;;;;;;;33.98;36.98;95413.72;5009179;28;20484;-77
2021/08/15 08:59:15;;;;;;;13.38;9.82;;;;;;;33.81;36.80;95380.78;5009426;28;20046;-77
2021/08/15 09:01:41;;;;;;;11.98;10.45;;;;;;;34.06;36.37;95410.25;5008888;28;20096;-77
2021/08/15 09:04:07;;;;;;;12.02;10.80;;;;;;;33.95;35.99;95400.84;5011250;28;20443;-78
2021/08/15 09:06:32;;;;;;;14.63;9.93;;;;;;;33.76;35.90;95383.38;5009126;28;20133;-77
2021/08/15 09:09:18;;;;;;;11.45;10.25;;;;;;;34.23;36.06;95407.28;5009367;28;20511;-77
2021/08/15 09:11:49;;;;;;;15.45;11.27;;;;;;;34.34;35.33;95391.84;5008235;28;20034;-78
2021/08/15 09:14:18;;;;;;;14.20;10.48;;;;;;;33.93;36.05;95400.47;5009330;28;20038;-77
2021/08/15 09:17:04;;;;;;;13.52;11.02;;;;;;;33.31;36.76;95370.72;5008551;28;20038;-77
2021/08/15 09:19:39;;;;;;;11.13;10.02;;;;;;;34.21;35.73;95390.41;5008949;28;20030;-77
2021/08/15 09:22:25;;;;;;;12.75;10.75;;;;;;;33.26;37.13;95366.56;5011227;28;20030;-78
2021/08/15 09:24:50;;;;;;;13.60;9.88;;;;;;;33.98;37.06;95386.91;5009445;28;20389;-77
2021/08/15 09:27:37;;;;;;;11.23;10.13;;;;;;;34.10;36.09;95385.28;5007734;28;20034;-77
2021/08/15 09:30:22;;;;;;;14.65;10.20;;;;;;;34.49;35.67;95374.75;5009322;28;20111;-77
2021/08/15 09:33:14;;;;;;;10.55;9.48;;;;;;;34.98;35.27;95376.78;5009428;28;20038;-78
2021/08/15 09:35:41;;;;;;;11.25;10.07;;;;;;;35.03;34.92;95376.94;5012799;28;20124;-77
2021/08/15 09:38:17;;;;;;;11.13;10.13;;;;;;;34.92;34.69;95369.06;5011631;28;20072;-80
2021/08/15 09:40:53;;;;;;;13.75;9.45;;;;;;;35.12;34.74;95356.84;5012734;28;20095;-77
2021/08/15 09:43:23;;;;;;;13.65;9.70;;;;;;;34.99;34.96;95372.78;5012655;28;20118;-77
2021/08/15 09:45:51;;;;;;;13.15;9.82;;;;;;;35.10;35.21;95350.97;5014282;28;20029;-77
2021/08/15 09:48:34;;;;;;;14.43;10.35;;;;;;;34.84;34.81;95370.56;5012439;28;20113;-77
2021/08/15 09:51:02;;;;;;;13.55;9.55;;;;;;;33.45;37.28;95373.03;5011625;28;20046;-80
2021/08/15 09:53:28;;;;;;;15.68;10.45;;;;;;;33.45;37.66;95347.44;5012846;28;20076;-79
2021/08/15 09:55:54;;;;;;;16.08;9.48;;;;;;;34.62;36.21;95364.38;5012740;28;20124;-78
2021/08/15 09:58:20;;;;;;;12.27;9.75;;;;;;;35.16;35.24;95361.00;5011507;28;20021;-79
2021/08/15 10:00:47;;;;;;;11.00;8.85;;;;;;;35.37;34.41;95358.50;5013183;28;20018;-73
2021/08/15 10:03:13;;;;;;;12.02;9.07;;;;;;;35.48;34.28;95363.63;5012912;28;20049;-72
2021/08/15 10:05:39;;;;;;;12.02;9.60;;;;;;;35.59;33.72;95348.09;5011211;28;20046;-78
2021/08/15 10:08:06;;;;;;;11.10;9.95;;;;;;;35.48;33.86;95339.50;5012561;28;20511;-81
2021/08/15 10:10:32;;;;;;;10.32;8.57;;;;;;;35.72;33.67;95355.44;5012684;28;20491;-80
2021/08/15 10:12:58;;;;;;;12.00;9.45;;;;;;;35.79;33.39;95358.69;5014625;28;20022;-80
2021/08/15 10:15:23;;;;;;;11.88;9.18;;;;;;;35.98;32.44;95351.09;5011774;28;20030;-81
2021/08/15 10:17:52;;;;;;;10.13;8.73;;;;;;;36.15;32.39;95355.06;5010215;28;20030;-72
2021/08/15 10:20:25;;;;;;;11.35;8.15;;;;;;;36.17;32.67;95346.28;5010728;28;20046;-72
2021/08/15 10:23:06;;;;;;;11.90;8.88;;;;;;;36.42;32.67;95347.91;5010006;28;20503;-80
2021/08/15 10:25:38;;;;;;;14.43;8.35;;;;;;;35.67;32.90;95340.22;5011879;28;20034;-73
2021/08/15 10:28:05;;;;;;;15.02;9.73;;;;;;;35.40;34.09;95350.06;5014349;28;20072;-80
2021/08/15 10:30:30;;;;;;;10.63;9.38;;;;;;;35.96;33.50;95341.75;5010908;28;20108;-78
2021/08/15 10:32:55;;;;;;;16.02;8.88;;;;;;;37.11;32.37;95343.38;5010912;28;20045;-82
2021/08/15 10:35:28;;;;;;;12.15;9.15;;;;;;;36.18;32.67;95331.97;5012357;28;20072;-80
2021/08/15 10:38:08;;;;;;;11.18;7.85;;;;;;;36.71;31.42;95336.25;5009527;28;20535;-67
2021/08/15 10:40:42;;;;;;;14.38;8.38;;;;;;;35.74;32.07;95325.31;5010978;28;20046;-80
2021/08/15 10:43:23;;;;;;;11.95;7.20;;;;;;;36.48;31.61;95321.09;5011690;28;20057;-72
2021/08/15 10:46:11;;;;;;;21.30;8.45;;;;;;;33.87;35.11;95320.28;5009332;28;20112;-76
2021/08/15 10:49:02;;;;;;;10.35;7.53;;;;;;;34.46;34.18;95314.91;5010893;28;20411;-71
2021/08/15 10:51:38;;;;;;;20.42;7.28;;;;;;;35.16;33.70;95310.44;5011050;28;20053;-79
2021/08/15 10:54:04;;;;;;;10.63;7.43;;;;;;;34.48;34.22;95302.19;5010898;28;20050;-73
2021/08/15 10:56:55;;;;;;;13.95;7.10;;;;;;;36.86;31.45;95292.72;5009553;28;20045;-70
2021/08/15 10:59:36;;;;;;;12.00;7.50;;;;;;;38.14;29.69;95293.59;5011048;28;20045;-71
2021/08/15 11:02:15;;;;;;;;;;;;;;;38.77;28.70;95292.50;5010699;28;20042;-73
2021/08/15 11:05:02;;;;;;;14.00;7.45;;;;;;;36.95;29.83;95283.56;5009951;28;20012;-70
2021/08/15 11:07:39;;;;;;;16.63;8.05;;;;;;;36.74;30.11;95281.84;5009857;28;20034;-71
2021/08/15 11:10:06;;;;;;;12.10;7.53;;;;;;;37.37;30.26;95261.22;5010804;28;20026;-69
2021/08/15 11:12:32;;;;;;;14.48;7.82;;;;;;;35.34;31.96;95257.13;5009561;28;20069;-72
2021/08/15 11:15:02;;;;;;;14.75;7.57;;;;;;;37.49;30.10;95270.50;5009129;28;20504;-74
2021/08/15 11:17:29;;;;;;;11.73;7.78;;;;;;;38.15;28.97;95278.44;5009821;28;20034;-74
2021/08/15 11:19:55;;;;;;;14.98;7.53;;;;;;;38.38;28.03;95260.09;5009448;28;20108;-68